RYA753 LKPR-EPWR
Flight info
| Callsign | RYA753 |
|---|---|
| Flight time | N/A |
| Altitude | 12000 |
| Route | ARTUP5B/30 ARTUP DCT LAGAR DCT DINOV |
| Aircraft | B38M/M-SDE1FGHILORVWXY/HB1 |
Departure
| Time | 2026-05-06 16:04 |
|---|---|
| Airport | Václav Havel Airport Prague (LKPR) |
Arrival
| Time | N/A |
|---|---|
| Airport | Copernicus Wrocław Airport (EPWR) |
| Time | Latitude | Longitude | Altitude | Speed | Heading |
|---|---|---|---|---|---|
| 2026-05-06 15:35 | 50.11094 | 14.26914 | 1171 ft | 0 kts | 245° |
| 2026-05-06 15:50 | 50.11095 | 14.26915 | 1171 ft | 0 kts | 245° |
| 2026-05-06 15:50 | 50.11096 | 14.26918 | 1171 ft | 1 kts | 245° |
| 2026-05-06 15:50 | 50.11100 | 14.26932 | 1173 ft | 2 kts | 245° |
| 2026-05-06 15:51 | 50.11107 | 14.26957 | 1171 ft | 3 kts | 244° |
| 2026-05-06 15:51 | 50.11118 | 14.26991 | 1172 ft | 3 kts | 248° |
| 2026-05-06 15:51 | 50.11122 | 14.27018 | 1175 ft | 2 kts | 276° |
| 2026-05-06 15:51 | 50.11122 | 14.27028 | 1175 ft | 1 kts | 302° |
| 2026-05-06 15:52 | 50.11121 | 14.27032 | 1175 ft | 0 kts | 315° |
| 2026-05-06 15:55 | 50.11122 | 14.27030 | 1174 ft | 1 kts | 314° |
| 2026-05-06 15:55 | 50.11131 | 14.27022 | 1172 ft | 3 kts | 326° |
| 2026-05-06 15:56 | 50.11153 | 14.27003 | 1173 ft | 5 kts | 334° |
| 2026-05-06 15:56 | 50.11192 | 14.26977 | 1175 ft | 7 kts | 338° |
| 2026-05-06 15:56 | 50.11247 | 14.26933 | 1173 ft | 10 kts | 325° |
| 2026-05-06 15:56 | 50.11262 | 14.26867 | 1173 ft | 4 kts | 260° |
| 2026-05-06 15:57 | 50.11256 | 14.26835 | 1174 ft | 3 kts | 248° |
| 2026-05-06 15:57 | 50.11246 | 14.26802 | 1172 ft | 4 kts | 246° |
| 2026-05-06 15:57 | 50.11231 | 14.26753 | 1173 ft | 7 kts | 243° |
| 2026-05-06 15:57 | 50.11197 | 14.26645 | 1171 ft | 15 kts | 245° |
| 2026-05-06 15:58 | 50.11146 | 14.26468 | 1167 ft | 22 kts | 245° |
| 2026-05-06 15:58 | 50.11044 | 14.26256 | 1165 ft | 26 kts | 214° |
| 2026-05-06 15:58 | 50.10892 | 14.26094 | 1169 ft | 22 kts | 214° |
| 2026-05-06 15:58 | 50.10775 | 14.25970 | 1172 ft | 20 kts | 214° |
| 2026-05-06 15:59 | 50.10670 | 14.25861 | 1178 ft | 16 kts | 213° |
| 2026-05-06 15:59 | 50.10606 | 14.25795 | 1182 ft | 5 kts | 206° |
| 2026-05-06 15:59 | 50.10583 | 14.25798 | 1182 ft | 3 kts | 155° |
| 2026-05-06 15:59 | 50.10570 | 14.25820 | 1183 ft | 4 kts | 126° |
| 2026-05-06 16:00 | 50.10545 | 14.25876 | 1184 ft | 9 kts | 123° |
| 2026-05-06 16:00 | 50.10500 | 14.25978 | 1188 ft | 14 kts | 126° |
| 2026-05-06 16:00 | 50.10432 | 14.26120 | 1190 ft | 20 kts | 127° |
| 2026-05-06 16:00 | 50.10336 | 14.26319 | 1194 ft | 26 kts | 127° |
| 2026-05-06 16:01 | 50.10215 | 14.26571 | 1200 ft | 31 kts | 127° |
| 2026-05-06 16:01 | 50.10077 | 14.26852 | 1207 ft | 35 kts | 128° |
| 2026-05-06 16:01 | 50.09929 | 14.27159 | 1211 ft | 36 kts | 126° |
| 2026-05-06 16:01 | 50.09756 | 14.27463 | 1214 ft | 38 kts | 136° |
| 2026-05-06 16:02 | 50.09570 | 14.27747 | 1224 ft | 36 kts | 135° |
| 2026-05-06 16:02 | 50.09404 | 14.27999 | 1244 ft | 31 kts | 134° |
| 2026-05-06 16:02 | 50.09264 | 14.28219 | 1245 ft | 26 kts | 137° |
| 2026-05-06 16:02 | 50.09130 | 14.28241 | 1250 ft | 19 kts | 225° |
| 2026-05-06 16:03 | 50.09096 | 14.28080 | 1238 ft | 15 kts | 283° |
| 2026-05-06 16:03 | 50.09141 | 14.27964 | 1241 ft | 11 kts | 306° |
| 2026-05-06 16:03 | 50.09206 | 14.27832 | 1242 ft | 26 kts | 307° |
| 2026-05-06 16:03 | 50.09441 | 14.27346 | 1222 ft | 92 kts | 307° |
| 2026-05-06 16:04 | 50.09959 | 14.26278 | 1194 ft | 154 kts | 307° |
| 2026-05-06 16:04 | 50.10710 | 14.24731 | 1230 ft | 199 kts | 307° |
| 2026-05-06 16:04 | 50.11576 | 14.22973 | 1888 ft | 212 kts | 307° |
| 2026-05-06 16:04 | 50.12527 | 14.21072 | 2523 ft | 235 kts | 307° |
| 2026-05-06 16:05 | 50.13547 | 14.19001 | 3366 ft | 243 kts | 307° |
| 2026-05-06 16:05 | 50.14577 | 14.16903 | 4361 ft | 246 kts | 307° |
| 2026-05-06 16:05 | 50.15611 | 14.14797 | 5290 ft | 250 kts | 307° |
| 2026-05-06 16:05 | 50.16874 | 14.12865 | 5879 ft | 268 kts | 336° |
| 2026-05-06 16:06 | 50.18712 | 14.12029 | 6424 ft | 285 kts | 346° |
| 2026-05-06 16:06 | 50.20755 | 14.11350 | 6603 ft | 318 kts | 349° |
| 2026-05-06 16:06 | 50.23021 | 14.10753 | 7106 ft | 335 kts | 351° |
| 2026-05-06 16:06 | 50.25327 | 14.10296 | 8133 ft | 334 kts | 354° |
| 2026-05-06 16:07 | 50.27636 | 14.10142 | 9342 ft | 320 kts | 2° |
| 2026-05-06 16:07 | 50.29702 | 14.10945 | 10901 ft | 298 kts | 27° |
| 2026-05-06 16:07 | 50.31258 | 14.12844 | 11776 ft | 270 kts | 52° |
| 2026-05-06 16:07 | 50.32258 | 14.15278 | 11996 ft | 276 kts | 61° |
| 2026-05-06 16:08 | 50.32874 | 14.17100 | 12004 ft | 295 kts | 59° |
| 2026-05-06 16:08 | 50.34521 | 14.20565 | 12020 ft | 331 kts | 50° |
| 2026-05-06 16:08 | 50.36079 | 14.23407 | 12024 ft | 354 kts | 49° |
| 2026-05-06 16:08 | 50.37679 | 14.26364 | 12016 ft | 356 kts | 55° |
| 2026-05-06 16:09 | 50.38959 | 14.29715 | 12012 ft | 360 kts | 62° |
| 2026-05-06 16:09 | 50.40086 | 14.33197 | 12013 ft | 358 kts | 64° |
| 2026-05-06 16:09 | 50.41163 | 14.36727 | 12008 ft | 359 kts | 64° |
| 2026-05-06 16:09 | 50.42224 | 14.40275 | 12008 ft | 358 kts | 65° |
| 2026-05-06 16:10 | 50.43276 | 14.43818 | 12007 ft | 359 kts | 65° |
| 2026-05-06 16:10 | 50.44314 | 14.47320 | 12008 ft | 358 kts | 65° |
| 2026-05-06 16:10 | 50.45365 | 14.50874 | 12010 ft | 358 kts | 65° |
| 2026-05-06 16:10 | 50.46342 | 14.54179 | 12010 ft | 359 kts | 65° |
| 2026-05-06 16:11 | 50.47389 | 14.57726 | 12007 ft | 359 kts | 65° |
| 2026-05-06 16:11 | 50.48439 | 14.61281 | 12007 ft | 359 kts | 65° |
| 2026-05-06 16:11 | 50.49148 | 14.63689 | 12008 ft | 359 kts | 65° |
| 2026-05-06 16:11 | 50.50532 | 14.68379 | 12007 ft | 359 kts | 65° |
| 2026-05-06 16:12 | 50.51234 | 14.70763 | 12011 ft | 369 kts | 65° |
| 2026-05-06 16:12 | 50.52499 | 14.74347 | 12016 ft | 380 kts | 51° |
| 2026-05-06 16:12 | 50.54402 | 14.77222 | 12013 ft | 380 kts | 38° |
| 2026-05-06 16:12 | 50.56533 | 14.79684 | 12006 ft | 382 kts | 34° |
| 2026-05-06 16:13 | 50.58742 | 14.82003 | 12012 ft | 382 kts | 33° |
| 2026-05-06 16:13 | 50.60974 | 14.84269 | 12007 ft | 382 kts | 32° |
| 2026-05-06 16:13 | 50.63211 | 14.86514 | 12009 ft | 381 kts | 32° |
| 2026-05-06 16:13 | 50.65457 | 14.88759 | 12008 ft | 382 kts | 32° |
| 2026-05-06 16:14 | 50.67667 | 14.91073 | 12008 ft | 382 kts | 40° |
| 2026-05-06 16:14 | 50.69316 | 14.94133 | 12009 ft | 382 kts | 58° |
| 2026-05-06 16:14 | 50.70549 | 14.97847 | 12008 ft | 383 kts | 65° |
| 2026-05-06 16:14 | 50.71599 | 15.01721 | 12009 ft | 384 kts | 68° |
| 2026-05-06 16:15 | 50.72580 | 15.05632 | 12009 ft | 382 kts | 69° |
| 2026-05-06 16:15 | 50.73533 | 15.09541 | 12007 ft | 383 kts | 69° |
| 2026-05-06 16:15 | 50.74482 | 15.13481 | 12009 ft | 383 kts | 69° |
| 2026-05-06 16:15 | 50.75422 | 15.17399 | 12008 ft | 383 kts | 69° |
| 2026-05-06 16:16 | 50.76359 | 15.21309 | 12007 ft | 384 kts | 69° |
| 2026-05-06 16:16 | 50.77306 | 15.25260 | 12009 ft | 384 kts | 69° |
| 2026-05-06 16:16 | 50.78245 | 15.29202 | 12008 ft | 384 kts | 70° |
| 2026-05-06 16:16 | 50.79098 | 15.33214 | 12009 ft | 385 kts | 72° |
| 2026-05-06 16:17 | 50.79897 | 15.37257 | 12011 ft | 385 kts | 73° |
| 2026-05-06 16:17 | 50.80673 | 15.41295 | 12007 ft | 385 kts | 73° |
| 2026-05-06 16:17 | 50.81446 | 15.45349 | 12006 ft | 385 kts | 73° |
| 2026-05-06 16:17 | 50.82215 | 15.49404 | 12007 ft | 385 kts | 73° |
| 2026-05-06 16:18 | 50.82981 | 15.53451 | 12008 ft | 383 kts | 73° |
| 2026-05-06 16:18 | 50.83744 | 15.57496 | 12006 ft | 383 kts | 73° |
| 2026-05-06 16:18 | 50.84506 | 15.61530 | 12007 ft | 383 kts | 73° |
| 2026-05-06 16:18 | 50.85267 | 15.65560 | 12007 ft | 382 kts | 73° |
| 2026-05-06 16:19 | 50.86018 | 15.69543 | 12005 ft | 382 kts | 73° |
| 2026-05-06 16:19 | 50.86787 | 15.73625 | 12008 ft | 383 kts | 73° |
| 2026-05-06 16:19 | 50.87548 | 15.77665 | 12006 ft | 383 kts | 73° |
| 2026-05-06 16:19 | 50.88246 | 15.81378 | 12008 ft | 383 kts | 73° |
| 2026-05-06 16:20 | 50.88999 | 15.85380 | 12007 ft | 383 kts | 73° |
| 2026-05-06 16:20 | 50.89766 | 15.89470 | 12008 ft | 383 kts | 73° |
| 2026-05-06 16:20 | 50.90527 | 15.93521 | 12007 ft | 383 kts | 73° |
| 2026-05-06 16:20 | 50.91274 | 15.97507 | 12006 ft | 383 kts | 73° |
| 2026-05-06 16:21 | 50.92031 | 16.01551 | 12008 ft | 384 kts | 73° |
| 2026-05-06 16:21 | 50.92791 | 16.05611 | 12007 ft | 382 kts | 73° |
| 2026-05-06 16:21 | 50.93543 | 16.09633 | 11810 ft | 379 kts | 73° |
| 2026-05-06 16:21 | 50.94447 | 16.13565 | 11296 ft | 379 kts | 62° |
| 2026-05-06 16:22 | 50.95833 | 16.17099 | 10899 ft | 376 kts | 54° |
| 2026-05-06 16:22 | 50.97350 | 16.20433 | 10496 ft | 374 kts | 54° |
| 2026-05-06 16:22 | 50.98795 | 16.23827 | 10096 ft | 372 kts | 58° |
| 2026-05-06 16:22 | 51.00065 | 16.27358 | 10000 ft | 366 kts | 61° |
| 2026-05-06 16:23 | 51.01331 | 16.30877 | 10006 ft | 366 kts | 59° |
| 2026-05-06 16:23 | 51.02654 | 16.34309 | 10007 ft | 366 kts | 58° |
| 2026-05-06 16:23 | 51.03989 | 16.37746 | 10005 ft | 365 kts | 58° |
| 2026-05-06 16:23 | 51.05296 | 16.41211 | 10012 ft | 365 kts | 59° |
| 2026-05-06 16:24 | 51.06593 | 16.44685 | 10002 ft | 365 kts | 59° |
| 2026-05-06 16:24 | 51.07925 | 16.48118 | 9998 ft | 360 kts | 53° |
| 2026-05-06 16:24 | 51.09679 | 16.50773 | 9996 ft | 339 kts | 32° |
| 2026-05-06 16:24 | 51.11824 | 16.52192 | 9998 ft | 337 kts | 11° |
| 2026-05-06 16:25 | 51.14141 | 16.52264 | 10013 ft | 333 kts | 349° |
| 2026-05-06 16:25 | 51.16296 | 16.50983 | 10004 ft | 333 kts | 327° |
| 2026-05-06 16:25 | 51.18076 | 16.48635 | 10007 ft | 332 kts | 322° |
| 2026-05-06 16:25 | 51.20128 | 16.46988 | 10028 ft | 333 kts | 345° |
| 2026-05-06 16:26 | 51.22369 | 16.46668 | 9990 ft | 326 kts | 6° |
| 2026-05-06 16:26 | 51.24449 | 16.48051 | 9649 ft | 341 kts | 46° |
| 2026-05-06 16:26 | 51.24967 | 16.51782 | 7232 ft | 374 kts | 105° |
| 2026-05-06 16:26 | 51.23177 | 16.54953 | 4130 ft | 434 kts | 156° |
| 2026-05-06 16:27 | 51.20309 | 16.56031 | 4180 ft | 395 kts | 169° |
| 2026-05-06 16:27 | 51.17803 | 16.57278 | 5233 ft | 378 kts | 165° |
| 2026-05-06 16:27 | 51.15278 | 16.57550 | 5336 ft | 351 kts | 184° |
| 2026-05-06 16:27 | 51.12955 | 16.57401 | 5773 ft | 311 kts | 189° |
| 2026-05-06 16:28 | 51.10950 | 16.56102 | 6270 ft | 326 kts | 215° |
| 2026-05-06 16:28 | 51.09302 | 16.53467 | 5679 ft | 362 kts | 235° |
| 2026-05-06 16:28 | 51.08002 | 16.49912 | 6558 ft | 354 kts | 244° |
| 2026-05-06 16:28 | 51.07413 | 16.46319 | 8464 ft | 337 kts | 268° |
| 2026-05-06 16:29 | 51.08142 | 16.42660 | 7776 ft | 372 kts | 310° |
| 2026-05-06 16:29 | 51.10267 | 16.40358 | 7248 ft | 364 kts | 331° |
| 2026-05-06 16:29 | 51.12212 | 16.37877 | 7355 ft | 356 kts | 318° |
| 2026-05-06 16:29 | 51.18875 | 16.60340 | 3583 ft | 350 kts | 116° |
| 2026-05-06 16:30 | 51.18596 | 16.61275 | 3557 ft | 162 kts | 115° |